Time;durP1;ratioP1;P1;durP2;ratioP2;P2;SDS_P1;SDS_P2;PMS_P1;PMS_P2;Temp;Humidity;BMP_temperature;BMP_pressure;BME280_temperature;BME280_humidity;BME280_pressure;Samples;Min_cycle;Max_cycle;Signal;HPM_P1;HPM_P2
2022/04/18 00:06:53;;;;;;;0.73;0.40;;;15.60;95.10;;;;;;6147847;23;20641;-92
2022/04/18 00:09:29;;;;;;;2.90;0.37;;;15.40;95.60;;;;;;6138983;23;20253;-91
2022/04/18 00:12:00;;;;;;;0.73;0.40;;;15.10;94.90;;;;;;6132281;23;20174;-92
2022/04/18 00:14:31;;;;;;;0.40;0.37;;;15.20;95.00;;;;;;6135051;23;20166;-92
2022/04/18 00:17:03;;;;;;;0.60;0.40;;;15.20;95.50;;;;;;6134414;23;20179;-90
2022/04/18 00:19:35;;;;;;;1.27;0.50;;;15.00;95.00;;;;;;6109038;23;20163;-91
2022/04/18 00:22:08;;;;;;;0.40;0.40;;;15.00;94.10;;;;;;6108181;23;20205;-91
2022/04/18 00:24:42;;;;;;;0.67;0.33;;;15.10;95.40;;;;;;6132079;23;20194;-91
2022/04/18 00:27:13;;;;;;;0.73;0.40;;;15.10;95.60;;;;;;6131508;23;20175;-92
2022/04/18 00:29:44;;;;;;;1.27;0.50;;;15.10;95.60;;;;;;6131172;23;20580;-91
2022/04/18 00:32:17;;;;;;;0.90;0.60;;;14.90;95.30;;;;;;6131549;23;20460;-91
2022/04/18 00:34:56;;;;;;;0.70;0.50;;;15.00;94.60;;;;;;6108244;23;20269;-91
2022/04/18 00:37:27;;;;;;;0.83;0.43;;;15.20;95.30;;;;;;6131801;23;20178;-91
2022/04/18 00:40:11;;;;;;;0.47;0.37;;;15.40;94.70;;;;;;6132602;23;20303;-91
2022/04/18 00:42:45;;;;;;;1.07;0.40;;;15.50;94.50;;;;;;6107634;23;20236;-92
2022/04/18 00:45:18;;;;;;;1.47;0.50;;;15.60;95.50;;;;;;6132155;23;20175;-91
2022/04/18 00:47:50;;;;;;;1.60;0.63;;;15.80;94.30;;;;;;6131938;23;20175;-91
2022/04/18 00:53:14;;;;;;;2.70;0.40;;;15.60;94.00;;;;;;6132809;23;20178;-92
2022/04/18 00:55:47;;;;;;;0.90;0.60;;;15.50;93.30;;;;;;6133995;23;20178;-92
2022/04/18 00:58:22;;;;;;;0.70;0.50;;;15.40;93.50;;;;;;6142839;23;20182;-91
2022/04/18 01:00:53;;;;;;;2.10;0.30;;;15.40;94.10;;;;;;6151689;23;20193;-92
2022/04/18 01:03:25;;;;;;;0.73;0.50;;;15.40;95.30;;;;;;6144992;23;20205;-92
2022/04/18 01:05:56;;;;;;;0.40;0.40;;;15.40;93.60;;;;;;6135957;23;20218;-92
2022/04/18 01:08:29;;;;;;;0.40;0.40;;;15.50;94.70;;;;;;6161072;23;20189;-92
2022/04/18 01:11:05;;;;;;;0.50;0.47;;;15.60;93.90;;;;;;6165834;23;20617;-92
2022/04/18 01:13:43;;;;;;;1.70;0.57;;;15.60;94.00;;;;;;6162200;23;20177;-93
2022/04/18 01:16:16;;;;;;;1.00;0.40;;;15.80;93.10;;;;;;6162673;23;20170;-92
2022/04/18 01:18:48;;;;;;;0.87;0.37;;;15.80;93.60;;;;;;6160243;23;20181;-91
2022/04/18 01:21:23;;;;;;;1.00;0.47;;;15.70;93.20;;;;;;6160389;23;20189;-91
2022/04/18 01:23:57;;;;;;;3.60;0.53;;;15.70;93.30;;;;;;6163053;23;20212;-91
2022/04/18 01:29:17;;;;;;;1.50;0.60;;;15.30;93.20;;;;;;6161612;23;20181;-89
2022/04/18 01:31:49;;;;;;;3.83;0.87;;;15.10;94.10;;;;;;6162918;23;20269;-91
2022/04/18 01:34:24;;;;;;;4.00;0.90;;;15.00;93.40;;;;;;6161563;23;20185;-90
2022/04/18 01:36:57;;;;;;;1.73;0.60;;;15.00;94.40;;;;;;6160339;23;20204;-91
2022/04/18 01:39:28;;;;;;;1.83;0.70;;;14.70;96.50;;;;;;6165392;23;20517;-90
2022/04/18 01:42:00;;;;;;;0.60;0.60;;;14.70;95.60;;;;;;6171201;23;20205;-90
2022/04/18 01:44:32;;;;;;;0.70;0.50;;;14.50;94.80;;;;;;6162822;23;20205;-91
2022/04/18 01:47:05;;;;;;;1.50;0.50;;;14.30;94.30;;;;;;6162058;23;20185;-91
2022/04/18 01:49:37;;;;;;;1.57;0.70;;;14.20;95.90;;;;;;6162678;23;20497;-90
2022/04/18 01:52:17;;;;;;;0.50;0.50;;;14.10;94.40;;;;;;6177437;23;20170;-91
2022/04/18 01:54:48;;;;;;;0.93;0.50;;;14.00;96.20;;;;;;6182909;23;20154;-91
2022/04/18 01:57:21;;;;;;;0.83;0.50;;;13.90;93.50;;;;;;6180272;23;20234;-91
2022/04/18 01:59:53;;;;;;;0.40;0.40;;;13.90;92.90;;;;;;6173358;23;20174;-91
2022/04/18 02:02:36;;;;;;;0.77;0.57;;;13.70;91.60;;;;;;6170970;23;20158;-91
2022/04/18 02:05:34;;;;;;;0.70;0.60;;;13.60;89.40;;;;;;6182086;23;20174;-91
2022/04/18 02:08:14;;;;;;;1.83;0.60;;;13.50;91.10;;;;;;6152051;23;20193;-92
2022/04/18 02:10:52;;;;;;;3.00;0.53;;;13.40;90.20;;;;;;6148719;23;20198;-91
2022/04/18 02:13:25;;;;;;;1.23;0.40;;;13.40;91.20;;;;;;6147176;23;20177;-92
2022/04/18 02:15:59;;;;;;;0.53;0.40;;;13.40;92.20;;;;;;6146174;23;20190;-91
2022/04/18 02:18:30;;;;;;;0.30;0.30;;;13.30;90.20;;;;;;6143398;23;20182;-89
2022/04/18 02:21:11;;;;;;;0.60;0.57;;;13.20;91.30;;;;;;6146474;23;20597;-89
2022/04/18 02:23:54;;;;;;;1.37;0.40;;;13.20;91.30;;;;;;6147971;23;20210;-90
2022/04/18 02:26:26;;;;;;;0.43;0.40;;;13.00;90.90;;;;;;6143995;23;20185;-91
2022/04/18 02:28:59;;;;;;;0.97;0.40;;;13.00;90.10;;;;;;6146068;23;20186;-91
2022/04/18 02:34:30;;;;;;;0.50;0.50;;;12.80;88.80;;;;;;6152561;23;20174;-92
2022/04/18 02:37:03;;;;;;;0.30;0.30;;;12.80;88.30;;;;;;6154111;23;20178;-90
2022/04/18 02:39:41;;;;;;;0.67;0.60;;;12.70;88.40;;;;;;6153619;23;20198;-91
2022/04/18 02:42:12;;;;;;;0.60;0.60;;;12.70;88.40;;;;;;6153905;23;20189;-91
2022/04/18 02:47:32;;;;;;;1.10;0.50;;;12.40;88.60;;;;;;6151509;23;20189;-91
2022/04/18 02:52:52;;;;;;;1.33;0.77;;;12.30;88.80;;;;;;6152998;23;20165;-90
2022/04/18 02:55:30;;;;;;;0.50;0.50;;;12.30;90.10;;;;;;6149299;23;20278;-90
2022/04/18 02:58:03;;;;;;;0.70;0.50;;;12.20;88.10;;;;;;6146812;23;20181;-90
2022/04/18 03:00:39;;;;;;;0.77;0.50;;;12.20;89.20;;;;;;6146914;23;20185;-91
2022/04/18 03:03:10;;;;;;;0.70;0.60;;;12.10;89.00;;;;;;6122526;23;20328;-92
2022/04/18 03:08:29;;;;;;;1.07;0.80;;;11.90;90.00;;;;;;6173606;23;20189;-91
2022/04/18 03:11:07;;;;;;;0.73;0.60;;;11.80;90.00;;;;;;6173302;23;20181;-91
2022/04/18 03:13:43;;;;;;;1.00;0.87;;;11.80;90.50;;;;;;6175313;23;20177;-91
2022/04/18 03:16:23;;;;;;;1.03;0.60;;;11.80;89.20;;;;;;6175396;23;20242;-90
2022/04/18 03:18:55;;;;;;;0.70;0.70;;;11.60;90.10;;;;;;6168377;23;20170;-91
2022/04/18 03:21:30;;;;;;;0.67;0.60;;;11.60;90.20;;;;;;6180043;23;20188;-90
2022/04/18 03:24:04;;;;;;;0.70;0.70;;;11.50;91.10;;;;;;6181745;23;20213;-90
2022/04/18 03:29:25;;;;;;;0.50;0.50;;;11.50;90.10;;;;;;6236502;23;20230;-90
2022/04/18 03:31:57;;;;;;;0.70;0.70;;;11.50;90.30;;;;;;6236229;23;20168;-91
2022/04/18 03:34:31;;;;;;;0.80;0.80;;;11.40;89.50;;;;;;6235775;23;20176;-91
2022/04/18 03:39:53;;;;;;;0.80;0.70;;;11.30;90.40;;;;;;6235696;23;20188;-91
2022/04/18 03:42:33;;;;;;;0.53;0.53;;;11.30;90.50;;;;;;6234574;23;20210;-91
2022/04/18 03:45:11;;;;;;;0.50;0.50;;;11.30;90.80;;;;;;6230613;23;20579;-90
2022/04/18 03:47:43;;;;;;;0.70;0.70;;;11.20;90.60;;;;;;6230456;23;20173;-91
2022/04/18 03:50:16;;;;;;;0.70;0.67;;;11.10;90.50;;;;;;6234085;23;20246;-91
2022/04/18 03:52:52;;;;;;;0.80;0.70;;;11.20;90.60;;;;;;6234416;23;20164;-91
2022/04/18 03:55:31;;;;;;;0.60;0.60;;;11.10;90.50;;;;;;6234336;23;20176;-91
2022/04/18 03:58:04;;;;;;;0.70;0.70;;;11.10;90.80;;;;;;6238701;23;20179;-92
2022/04/18 04:00:42;;;;;;;0.50;0.50;;;11.10;90.60;;;;;;6238813;23;20180;-88
2022/04/18 04:03:13;;;;;;;0.53;0.50;;;11.00;91.70;;;;;;6235300;23;20167;-90
2022/04/18 04:05:46;;;;;;;1.20;0.50;;;11.00;91.40;;;;;;6219719;23;20621;-89
2022/04/18 04:08:22;;;;;;;0.60;0.60;;;10.90;91.50;;;;;;6180999;23;20209;-91
2022/04/18 04:10:54;;;;;;;0.97;0.60;;;10.90;91.40;;;;;;6181151;23;20209;-91
2022/04/18 04:13:30;;;;;;;1.10;0.50;;;10.90;91.40;;;;;;6180560;23;20177;-91
2022/04/18 04:16:07;;;;;;;0.40;0.40;;;10.90;91.60;;;;;;6170909;23;20216;-91
2022/04/18 04:18:39;;;;;;;0.80;0.60;;;10.90;91.40;;;;;;6146295;23;20254;-91
2022/04/18 04:21:10;;;;;;;0.60;0.40;;;10.80;91.90;;;;;;6132368;23;20178;-91
2022/04/18 04:23:43;;;;;;;0.50;0.40;;;10.80;91.40;;;;;;6132382;23;20193;-90
2022/04/18 04:26:18;;;;;;;0.97;0.60;;;10.80;91.80;;;;;;6140788;23;20171;-91
2022/04/18 04:28:52;;;;;;;0.77;0.47;;;10.80;92.20;;;;;;6141063;23;20238;-90
2022/04/18 04:31:34;;;;;;;2.20;0.43;;;10.80;92.00;;;;;;6136231;23;20170;-91
2022/04/18 04:34:05;;;;;;;1.20;0.67;;;10.80;92.00;;;;;;6112657;23;20590;-91
2022/04/18 04:36:43;;;;;;;1.23;0.80;;;10.80;92.80;;;;;;6135398;23;20170;-92
2022/04/18 04:39:14;;;;;;;1.03;0.40;;;10.70;92.60;;;;;;6134981;23;20182;-91
2022/04/18 04:41:45;;;;;;;1.33;0.50;;;10.70;93.20;;;;;;6133691;23;20182;-89
2022/04/18 04:44:17;;;;;;;0.83;0.50;;;10.70;92.80;;;;;;6132088;23;20202;-91
2022/04/18 04:46:50;;;;;;;1.33;0.50;;;10.80;92.60;;;;;;6133800;23;20207;-90
2022/04/18 04:49:21;;;;;;;0.83;0.60;;;10.70;93.20;;;;;;6131774;23;20171;-91
2022/04/18 04:51:53;;;;;;;0.30;0.30;;;10.70;93.50;;;;;;6131847;23;20258;-91
2022/04/18 04:54:24;;;;;;;1.03;0.73;;;10.80;93.10;;;;;;6143709;23;20178;-91
2022/04/18 04:56:57;;;;;;;0.97;0.60;;;10.70;92.90;;;;;;6138948;23;20183;-90
2022/04/18 04:59:29;;;;;;;0.60;0.37;;;10.70;93.50;;;;;;6115601;23;20241;-92
2022/04/18 05:02:05;;;;;;;0.67;0.37;;;10.60;93.40;;;;;;6144889;23;20170;-91
2022/04/18 05:04:37;;;;;;;0.30;0.30;;;10.60;93.80;;;;;;6143008;23;20194;-91
2022/04/18 05:07:10;;;;;;;0.47;0.40;;;10.60;93.60;;;;;;6120405;23;20182;-92
2022/04/18 05:09:42;;;;;;;0.40;0.40;;;10.60;93.60;;;;;;6142416;23;20189;-92
2022/04/18 05:12:14;;;;;;;0.50;0.30;;;10.60;93.10;;;;;;6120888;23;20174;-92
2022/04/18 05:14:46;;;;;;;1.73;0.60;;;10.50;93.10;;;;;;6143399;23;20189;-90
2022/04/18 05:20:08;;;;;;;1.73;0.53;;;10.50;93.80;;;;;;6176278;23;20264;-90
2022/04/18 05:22:42;;;;;;;0.57;0.40;;;10.40;93.10;;;;;;6174455;23;20181;-90
2022/04/18 05:25:15;;;;;;;0.60;0.40;;;10.50;93.20;;;;;;6177117;23;20197;-90
2022/04/18 05:27:49;;;;;;;0.30;0.30;;;10.50;93.80;;;;;;6175229;23;20196;-91
2022/04/18 05:30:24;;;;;;;0.93;0.30;;;10.50;93.20;;;;;;6178448;23;20173;-90
2022/04/18 05:33:00;;;;;;;0.40;0.40;;;10.50;93.80;;;;;;6179965;23;20161;-90
2022/04/18 05:35:31;;;;;;;1.60;0.57;;;10.50;93.80;;;;;;6179934;23;20216;-90
2022/04/18 05:38:04;;;;;;;1.73;0.50;;;10.50;93.70;;;;;;6177259;23;20214;-91
2022/04/18 05:40:35;;;;;;;1.80;0.30;;;10.50;93.60;;;;;;6181462;23;20229;-90
2022/04/18 05:43:11;;;;;;;0.60;0.40;;;10.50;93.70;;;;;;6180176;23;20181;-90
2022/04/18 05:45:48;;;;;;;0.40;0.37;;;10.50;93.60;;;;;;6170505;23;20202;-91
2022/04/18 05:48:23;;;;;;;0.50;0.47;;;10.40;93.60;;;;;;6169745;23;20185;-91
2022/04/18 05:53:40;;;;;;;1.53;0.60;;;10.40;93.80;;;;;;6165651;23;20236;-92
2022/04/18 05:56:11;;;;;;;0.77;0.33;;;10.50;93.30;;;;;;6167117;23;20513;-92
2022/04/18 05:58:43;;;;;;;0.50;0.40;;;10.50;93.50;;;;;;6167519;23;20189;-90
2022/04/18 06:01:14;;;;;;;0.77;0.40;;;10.40;93.60;;;;;;6174367;23;20170;-91
2022/04/18 06:04:18;;;;;;;0.30;0.30;;;10.40;93.60;;;;;;6179551;23;20555;-89
2022/04/18 06:06:52;;;;;;;0.30;0.30;;;10.40;93.70;;;;;;6162861;23;20209;-91
2022/04/18 06:09:25;;;;;;;0.30;0.30;;;10.50;93.50;;;;;;6165126;23;20182;-90
2022/04/18 06:11:56;;;;;;;0.60;0.40;;;10.50;93.70;;;;;;6162868;23;20174;-90
2022/04/18 06:14:30;;;;;;;1.17;0.40;;;10.50;93.40;;;;;;6169867;23;20181;-90
2022/04/18 06:17:03;;;;;;;0.50;0.50;;;10.50;93.40;;;;;;6153929;23;20220;-90
2022/04/18 06:19:34;;;;;;;1.53;0.40;;;10.50;94.40;;;;;;6119669;23;20189;-89
2022/04/18 06:22:10;;;;;;;1.33;0.40;;;10.40;94.10;;;;;;6153271;23;20166;-91
2022/04/18 06:24:44;;;;;;;1.90;0.40;;;10.40;93.80;;;;;;6127969;23;20198;-91
2022/04/18 06:27:15;;;;;;;0.40;0.30;;;10.40;93.80;;;;;;6116621;23;20629;-89
2022/04/18 06:29:47;;;;;;;1.10;0.40;;;10.40;93.50;;;;;;6109648;23;20197;-91
2022/04/18 06:32:21;;;;;;;0.53;0.50;;;10.50;93.10;;;;;;6108568;23;20198;-92
2022/04/18 06:34:52;;;;;;;0.63;0.50;;;10.50;93.60;;;;;;6107806;23;20178;-90
2022/04/18 06:37:28;;;;;;;0.37;0.37;;;10.50;93.50;;;;;;6132655;23;20179;-92
2022/04/18 06:40:00;;;;;;;0.63;0.50;;;10.50;93.70;;;;;;6134620;23;20185;-91
2022/04/18 06:42:32;;;;;;;0.30;0.30;;;10.50;92.90;;;;;;6140495;23;20186;-92
2022/04/18 06:45:05;;;;;;;0.80;0.40;;;10.60;92.70;;;;;;6136939;23;20201;-91
2022/04/18 06:47:36;;;;;;;0.70;0.60;;;10.60;92.80;;;;;;6138576;23;20182;-93
2022/04/18 06:50:11;;;;;;;1.43;0.33;;;10.60;93.10;;;;;;6132719;23;20182;-90
2022/04/18 06:52:46;;;;;;;0.50;0.40;;;10.60;93.20;;;;;;6135225;23;20177;-90
2022/04/18 06:55:17;;;;;;;0.37;0.37;;;10.70;93.10;;;;;;6138415;23;20178;-90
2022/04/18 06:57:47;;;;;;;0.30;0.30;;;10.60;93.40;;;;;;6137473;23;20178;-91
2022/04/18 07:00:19;;;;;;;0.60;0.47;;;10.60;93.80;;;;;;6151850;23;20549;-90
2022/04/18 07:02:50;;;;;;;0.50;0.30;;;10.60;93.50;;;;;;6152069;23;20177;-90
2022/04/18 07:05:22;;;;;;;1.00;0.50;;;10.60;93.80;;;;;;6135700;23;20203;-90
2022/04/18 07:07:55;;;;;;;0.30;0.30;;;10.60;93.40;;;;;;6134681;23;20178;-90
2022/04/18 07:10:26;;;;;;;0.83;0.43;;;10.60;93.50;;;;;;6133457;23;20618;-90
2022/04/18 07:12:58;;;;;;;1.40;0.30;;;10.50;93.40;;;;;;6134980;23;20183;-90
2022/04/18 07:15:30;;;;;;;1.67;0.37;;;10.50;93.40;;;;;;6133550;23;20182;-91
2022/04/18 07:18:03;;;;;;;0.87;0.47;;;10.50;93.50;;;;;;6136424;23;20217;-90
2022/04/18 07:20:37;;;;;;;0.80;0.40;;;10.50;93.70;;;;;;6135145;23;20179;-91
2022/04/18 07:23:19;;;;;;;0.30;0.30;;;10.40;94.90;;;;;;6131579;23;20568;-91
2022/04/18 07:25:50;;;;;;;1.53;0.50;;;10.30;94.60;;;;;;6131162;23;20202;-91
2022/04/18 07:28:22;;;;;;;2.00;0.43;;;10.20;94.40;;;;;;6131127;23;20194;-91
2022/04/18 07:30:53;;;;;;;0.97;0.33;;;10.20;94.70;;;;;;6131365;23;20198;-91
2022/04/18 07:33:24;;;;;;;0.97;0.50;;;10.10;94.80;;;;;;6131040;23;20190;-90
2022/04/18 07:35:55;;;;;;;0.63;0.40;;;10.10;95.30;;;;;;6130405;23;20194;-91
2022/04/18 07:41:18;;;;;;;1.23;0.53;;;10.00;96.60;;;;;;6130982;23;20559;-91
2022/04/18 07:43:52;;;;;;;0.67;0.43;;;10.00;97.70;;;;;;6139094;23;20198;-90
2022/04/18 07:46:25;;;;;;;0.87;0.50;;;9.90;97.10;;;;;;6136360;23;20208;-91
2022/04/18 07:48:56;;;;;;;0.40;0.30;;;10.00;96.60;;;;;;6130292;23;20178;-91
2022/04/18 07:51:34;;;;;;;1.23;0.40;;;10.10;95.40;;;;;;6131505;23;20234;-91
2022/04/18 07:54:08;;;;;;;1.73;0.80;;;10.00;95.60;;;;;;6131676;23;20185;-91
2022/04/18 07:56:40;;;;;;;0.83;0.60;;;10.10;95.10;;;;;;6131399;23;20637;-89
2022/04/18 07:59:11;;;;;;;1.53;0.60;;;10.10;96.00;;;;;;6132647;23;20512;-90
2022/04/18 08:01:43;;;;;;;0.50;0.50;;;10.10;96.30;;;;;;6105755;23;20175;-90
2022/04/18 08:04:14;;;;;;;0.43;0.37;;;10.10;97.30;;;;;;6131552;23;20285;-91
2022/04/18 08:06:46;;;;;;;1.57;0.53;;;10.10;97.50;;;;;;6121179;23;20257;-91
2022/04/18 08:09:19;;;;;;;0.87;0.63;;;10.10;97.50;;;;;;6137288;23;20565;-90
2022/04/18 08:11:52;;;;;;;2.27;0.60;;;10.10;98.60;;;;;;6137477;23;20178;-90
2022/04/18 08:14:23;;;;;;;1.03;0.50;;;10.10;99.90;;;;;;6144343;23;20185;-91
2022/04/18 08:16:54;;;;;;;0.40;0.40;;;10.10;99.90;;;;;;6135790;23;20622;-91
2022/04/18 08:19:25;;;;;;;2.20;0.60;;;10.10;99.90;;;;;;6130589;23;20178;-90
2022/04/18 08:21:57;;;;;;;1.23;0.67;;;10.10;99.90;;;;;;6135758;23;20171;-90
2022/04/18 08:24:30;;;;;;;0.83;0.60;;;10.10;99.90;;;;;;6130790;23;20186;-91
2022/04/18 08:27:02;;;;;;;0.57;0.50;;;10.10;99.90;;;;;;6131262;23;20314;-91
2022/04/18 08:29:34;;;;;;;1.90;0.60;;;10.10;99.90;;;;;;6132700;23;20252;-90
2022/04/18 08:32:07;;;;;;;1.47;0.50;;;10.10;99.90;;;;;;6134638;23;20684;-90
2022/04/18 08:34:39;;;;;;;0.80;0.53;;;10.00;99.90;;;;;;6130917;23;20174;-90
2022/04/18 08:37:11;;;;;;;0.90;0.60;;;10.00;99.90;;;;;;6132341;23;20185;-89
2022/04/18 08:39:45;;;;;;;1.67;0.67;;;10.00;99.90;;;;;;6149925;23;20182;-93
2022/04/18 08:42:17;;;;;;;0.83;0.53;;;10.00;99.90;;;;;;6128023;23;20191;-91
2022/04/18 08:44:48;;;;;;;0.70;0.50;;;10.00;99.90;;;;;;6152301;23;20163;-91
2022/04/18 08:52:53;;;;;;;2.10;0.50;;;10.00;99.90;;;;;;6137984;23;20209;-92
2022/04/18 08:55:29;;;;;;;0.80;0.43;;;9.90;99.90;;;;;;6132087;23;20222;-91
2022/04/18 08:58:01;;;;;;;2.40;0.67;;;10.00;99.90;;;;;;6130933;23;20178;-90
2022/04/18 09:00:32;;;;;;;0.70;0.60;;;10.00;99.90;;;;;;6131065;23;20178;-90
2022/04/18 09:03:05;;;;;;;2.10;0.70;;;10.00;99.90;;;;;;6105810;23;20233;-91
2022/04/18 09:05:38;;;;;;;2.97;0.77;;;10.00;99.90;;;;;;6131843;23;20189;-90
2022/04/18 09:08:11;;;;;;;1.37;0.70;;;10.00;99.90;;;;;;6131263;23;20277;-90
2022/04/18 09:10:50;;;;;;;1.20;0.77;;;10.00;99.90;;;;;;6132202;23;20186;-90
2022/04/18 09:13:26;;;;;;;0.63;0.60;;;10.00;99.90;;;;;;6112276;23;20273;-89
2022/04/18 09:15:57;;;;;;;2.60;0.50;;;10.00;99.90;;;;;;6150255;23;20181;-88
2022/04/18 09:18:29;;;;;;;2.60;0.50;;;10.00;99.90;;;;;;6136434;23;20233;-91
2022/04/18 09:21:01;;;;;;;1.57;0.83;;;10.00;99.90;;;;;;6113387;23;20226;-90
2022/04/18 09:23:34;;;;;;;1.00;0.80;;;10.00;99.90;;;;;;6142271;23;20182;-91
2022/04/18 09:26:10;;;;;;;4.10;1.80;;;10.00;99.90;;;;;;6128411;23;20177;-88
2022/04/18 09:28:42;;;;;;;3.70;0.80;;;9.90;99.90;;;;;;6152101;23;20158;-90
2022/04/18 09:31:14;;;;;;;1.17;0.87;;;9.80;99.90;;;;;;6152191;23;20177;-90
2022/04/18 09:33:47;;;;;;;1.73;0.73;;;9.70;99.90;;;;;;6152395;23;20182;-91
2022/04/18 09:36:20;;;;;;;1.13;0.80;;;9.70;99.90;;;;;;6149330;23;20629;-90
2022/04/18 09:38:56;;;;;;;0.83;0.80;;;9.50;99.90;;;;;;6150338;23;20166;-89
2022/04/18 09:41:30;;;;;;;2.57;0.97;;;9.40;99.90;;;;;;6150730;23;20171;-89
2022/04/18 09:44:03;;;;;;;1.43;0.80;;;9.30;99.90;;;;;;6146210;23;20166;-91
2022/04/18 09:46:37;;;;;;;3.07;1.07;;;9.10;99.90;;;;;;6145673;23;20193;-90
2022/04/18 09:49:08;;;;;;;1.80;1.00;;;9.00;99.90;;;;;;6146477;23;20155;-91
2022/04/18 09:51:43;;;;;;;2.20;0.90;;;8.90;99.90;;;;;;6147096;23;20178;-90
2022/04/18 09:54:15;;;;;;;0.90;0.80;;;8.90;99.90;;;;;;6143966;23;20181;-90
2022/04/18 09:56:54;;;;;;;1.00;0.90;;;8.80;99.90;;;;;;6146379;23;20171;-89
2022/04/18 09:59:27;;;;;;;2.70;1.07;;;8.90;99.90;;;;;;6144547;23;20194;-89
2022/04/18 10:02:00;;;;;;;3.27;1.40;;;8.70;99.90;;;;;;6148870;23;20159;-89
2022/04/18 10:04:34;;;;;;;1.83;0.90;;;8.60;99.90;;;;;;6123996;23;20202;-91
2022/04/18 10:07:07;;;;;;;3.03;1.00;;;8.60;99.90;;;;;;6146383;23;20206;-89
2022/04/18 10:09:40;;;;;;;1.73;1.10;;;8.60;99.90;;;;;;6145554;23;20166;-86
2022/04/18 10:12:15;;;;;;;3.10;1.17;;;8.60;99.90;;;;;;6139815;23;20179;-90
2022/04/18 10:14:46;;;;;;;2.77;1.10;;;8.60;99.90;;;;;;6138022;23;20185;-90
2022/04/18 10:17:20;;;;;;;1.90;0.83;;;8.60;99.90;;;;;;6135499;23;20222;-90
2022/04/18 10:20:21;;;;;;;2.17;0.87;;;8.50;99.90;;;;;;6138646;23;20249;-90
2022/04/18 10:23:09;;;;;;;1.37;0.97;;;8.50;99.90;;;;;;6142211;23;20182;-90
2022/04/18 10:26:04;;;;;;;1.67;1.07;;;8.40;99.90;;;;;;6138806;23;20189;-90
2022/04/18 10:28:42;;;;;;;3.73;1.37;;;8.40;99.90;;;;;;6137859;23;20206;-89
2022/04/18 10:31:18;;;;;;;2.47;1.00;;;8.40;99.90;;;;;;6134326;23;20209;-90
2022/04/18 10:33:50;;;;;;;2.07;1.03;;;8.40;99.90;;;;;;6133815;23;20245;-90
2022/04/18 10:36:27;;;;;;;1.83;1.10;;;8.40;99.90;;;;;;6133856;23;20178;-90
2022/04/18 10:38:59;;;;;;;2.17;1.07;;;8.50;99.90;;;;;;6133498;23;20640;-91
2022/04/18 10:41:37;;;;;;;1.30;1.20;;;8.50;99.90;;;;;;6134953;23;20167;-90
2022/04/18 10:44:12;;;;;;;4.30;1.33;;;8.30;99.90;;;;;;6108537;23;20178;-91
2022/04/18 10:46:55;;;;;;;3.23;1.10;;;8.30;99.90;;;;;;6135159;23;20177;-90
2022/04/18 10:49:31;;;;;;;3.17;1.03;;;8.20;99.90;;;;;;6115832;23;20182;-90
2022/04/18 10:52:08;;;;;;;1.87;1.20;;;8.20;99.90;;;;;;6150182;23;20206;-90
2022/04/18 10:54:39;;;;;;;2.13;1.00;;;8.20;99.90;;;;;;6149393;23;20173;-91
2022/04/18 10:57:12;;;;;;;1.20;0.80;;;8.20;99.90;;;;;;6146735;23;20183;-90
2022/04/18 10:59:46;;;;;;;3.63;0.80;;;8.20;99.90;;;;;;6142147;23;20214;-90
2022/04/18 11:02:42;;;;;;;2.47;1.00;;;8.30;99.90;;;;;;6135567;23;20178;-90
2022/04/18 11:05:14;;;;;;;2.83;0.93;;;8.20;99.90;;;;;;6136441;23;20185;-90
2022/04/18 11:07:45;;;;;;;1.17;0.90;;;8.20;99.90;;;;;;6133021;23;20213;-90
2022/04/18 11:10:25;;;;;;;1.80;0.80;;;8.20;99.90;;;;;;6133633;23;20208;-90
2022/04/18 11:13:03;;;;;;;2.57;1.10;;;8.20;99.90;;;;;;6136554;23;20185;-91
2022/04/18 11:15:38;;;;;;;3.83;0.93;;;8.10;99.90;;;;;;6133327;23;20209;-88
2022/04/18 11:18:28;;;;;;;2.83;0.90;;;8.10;99.90;;;;;;6132206;23;20193;-90
2022/04/18 11:20:59;;;;;;;4.20;1.53;;;8.00;99.90;;;;;;6132685;23;20317;-90
2022/04/18 11:23:32;;;;;;;2.80;1.20;;;7.90;99.90;;;;;;6133118;23;20167;-90
2022/04/18 11:26:07;;;;;;;2.70;0.93;;;7.90;99.90;;;;;;6132917;23;20179;-90
2022/04/18 11:28:43;;;;;;;1.30;0.80;;;7.90;99.90;;;;;;6131829;23;20204;-90
2022/04/18 11:31:21;;;;;;;3.03;1.10;;;7.90;99.90;;;;;;6131765;23;20225;-90
2022/04/18 11:33:52;;;;;;;2.07;1.00;;;7.80;99.90;;;;;;6135112;23;20178;-90
2022/04/18 11:36:26;;;;;;;3.43;1.00;;;7.80;99.90;;;;;;6134446;23;20287;-89
2022/04/18 11:39:07;;;;;;;1.77;1.17;;;7.80;99.90;;;;;;6131487;23;20233;-90
2022/04/18 11:41:38;;;;;;;3.43;0.87;;;7.70;99.90;;;;;;6106897;23;20294;-91
2022/04/18 11:44:10;;;;;;;4.93;1.00;;;7.70;99.90;;;;;;6132490;23;20178;-90
2022/04/18 11:46:44;;;;;;;2.10;0.90;;;7.70;99.90;;;;;;6107543;23;20190;-90
2022/04/18 11:49:16;;;;;;;3.43;1.30;;;7.60;99.90;;;;;;6131327;23;20245;-90
2022/04/18 11:51:50;;;;;;;2.27;0.87;;;7.70;99.90;;;;;;6132287;23;20196;-91
2022/04/18 11:54:21;;;;;;;3.70;1.07;;;7.60;99.90;;;;;;6132385;23;20581;-90
2022/04/18 11:56:59;;;;;;;4.43;1.33;;;7.60;99.90;;;;;;6131864;23;20198;-90
2022/04/18 11:59:32;;;;;;;0.90;0.80;;;7.60;99.90;;;;;;6106984;23;20194;-90
2022/04/18 12:07:48;;;;;;;1.90;1.13;;;7.60;99.90;;;;;;6130816;23;20237;-91
2022/04/18 12:10:25;;;;;;;1.93;1.00;;;7.60;99.90;;;;;;6131566;23;20174;-89
2022/04/18 12:12:56;;;;;;;0.90;0.70;;;7.50;99.90;;;;;;6131370;23;20178;-90
2022/04/18 12:15:29;;;;;;;2.27;1.00;;;7.60;99.90;;;;;;6131709;23;20182;-90
2022/04/18 12:18:11;;;;;;;2.20;0.83;;;7.60;99.90;;;;;;6130019;23;20603;-90
2022/04/18 12:20:44;;;;;;;0.87;0.67;;;7.60;99.90;;;;;;6138967;23;20166;-91
2022/04/18 12:23:20;;;;;;;2.23;0.70;;;7.60;99.90;;;;;;6106907;23;20273;-91
2022/04/18 12:25:53;;;;;;;0.93;0.73;;;7.50;99.90;;;;;;6131630;23;20552;-90
2022/04/18 12:28:28;;;;;;;2.50;0.97;;;7.60;99.90;;;;;;6130483;23;20245;-90
2022/04/18 12:31:00;;;;;;;3.47;0.90;;;7.50;99.90;;;;;;6137473;23;20174;-90
2022/04/18 12:33:34;;;;;;;3.00;0.80;;;7.60;99.90;;;;;;6136238;23;20179;-89
2022/04/18 12:36:06;;;;;;;2.30;1.13;;;7.60;99.90;;;;;;6133148;23;20178;-90
2022/04/18 12:38:42;;;;;;;1.30;0.93;;;7.60;99.90;;;;;;6105030;23;20170;-89
2022/04/18 12:41:13;;;;;;;1.30;1.10;;;7.50;99.90;;;;;;6130355;23;20669;-89
2022/04/18 12:43:45;;;;;;;1.90;0.80;;;7.50;99.90;;;;;;6131530;23;20186;-89
2022/04/18 12:46:17;;;;;;;1.10;0.60;;;7.60;99.90;;;;;;6131701;23;20174;-89
2022/04/18 12:48:55;;;;;;;1.50;0.70;;;7.60;99.90;;;;;;6130333;23;20206;-90
2022/04/18 12:51:34;;;;;;;1.43;0.83;;;7.60;99.90;;;;;;6130766;23;20181;-91
2022/04/18 12:54:07;;;;;;;1.33;0.90;;;7.50;99.90;;;;;;6131795;23;20197;-90
2022/04/18 12:56:47;;;;;;;1.37;0.80;;;7.50;99.90;;;;;;6131880;23;20183;-90
2022/04/18 12:59:25;;;;;;;1.20;1.10;;;7.50;99.90;;;;;;6131960;23;20205;-90
2022/04/18 13:02:08;;;;;;;1.13;0.80;;;7.50;99.90;;;;;;6123474;23;20189;-90
2022/04/18 13:04:41;;;;;;;2.53;1.33;;;7.50;99.90;;;;;;6152272;23;20197;-90
2022/04/18 13:07:13;;;;;;;1.40;0.90;;;7.50;99.90;;;;;;6148754;23;20208;-93
2022/04/18 13:09:45;;;;;;;0.73;0.60;;;7.60;99.90;;;;;;6123888;23;20188;-91
2022/04/18 13:12:17;;;;;;;0.80;0.70;;;7.60;99.90;;;;;;6114833;23;20238;-91
2022/04/18 13:15:05;;;;;;;2.43;0.80;;;7.70;99.90;;;;;;6109308;23;20618;-88
2022/04/18 13:17:56;;;;;;;0.93;0.70;;;7.60;99.90;;;;;;6132367;23;20186;-91
2022/04/18 13:20:33;;;;;;;1.30;0.63;;;7.70;99.90;;;;;;6132158;23;20178;-90
2022/04/18 13:23:04;;;;;;;0.93;0.60;;;7.70;99.90;;;;;;6130946;23;20178;-91
2022/04/18 13:25:36;;;;;;;0.50;0.50;;;7.80;99.90;;;;;;6133749;23;20189;-90
2022/04/18 13:28:10;;;;;;;1.90;0.70;;;7.90;99.90;;;;;;6129646;23;20178;-90
2022/04/18 13:30:41;;;;;;;1.60;0.40;;;8.00;99.90;;;;;;6130775;23;20182;-89
2022/04/18 13:33:13;;;;;;;0.90;0.60;;;8.00;99.90;;;;;;6130666;23;20240;-90
2022/04/18 13:38:34;;;;;;;0.97;0.73;;;8.00;99.90;;;;;;6130213;23;20194;-89
2022/04/18 13:41:05;;;;;;;2.60;1.20;;;8.00;99.90;;;;;;6131399;23;20206;-89
2022/04/18 13:43:37;;;;;;;0.93;0.60;;;8.10;99.90;;;;;;6130775;23;20210;-90
2022/04/18 13:46:09;;;;;;;0.80;0.50;;;8.30;99.90;;;;;;6132908;23;20178;-89
2022/04/18 13:48:44;;;;;;;2.40;0.50;;;8.60;99.90;;;;;;6133882;23;20672;-89
2022/04/18 13:51:19;;;;;;;0.90;0.50;;;8.60;99.90;;;;;;6133142;23;20173;-91
2022/04/18 13:53:52;;;;;;;1.17;0.80;;;8.90;99.90;;;;;;6136282;23;20205;-89
2022/04/18 13:56:26;;;;;;;0.90;0.43;;;9.20;99.90;;;;;;6136826;23;20233;-90
2022/04/18 13:58:59;;;;;;;0.87;0.60;;;9.10;99.90;;;;;;6138684;23;20182;-88
2022/04/18 14:01:30;;;;;;;0.83;0.70;;;9.10;99.90;;;;;;6113168;23;20174;-90
2022/04/18 14:04:01;;;;;;;1.83;0.63;;;9.10;99.90;;;;;;6146284;23;20186;-89
2022/04/18 14:06:35;;;;;;;1.57;0.70;;;9.30;99.90;;;;;;6153463;23;20170;-90
2022/04/18 14:09:06;;;;;;;1.27;0.77;;;9.40;99.90;;;;;;6151890;23;20719;-89
2022/04/18 14:11:39;;;;;;;1.23;0.60;;;9.50;99.90;;;;;;6127196;23;20193;-90
2022/04/18 14:20:20;;;;;;;4.53;0.50;;;9.60;99.90;;;;;;6146523;23;20174;-89
2022/04/18 14:22:46;;;;;;;1.77;0.63;;;9.50;99.90;;;;;;6139421;23;20174;-90